createdAt,value
2022-11-10T00:00:21.149Z,9.70
2022-11-10T00:03:28.484Z,9.60
2022-11-10T00:06:37.143Z,9.70
2022-11-10T00:09:44.422Z,9.60
2022-11-10T00:12:52.353Z,9.70
2022-11-10T00:16:22.177Z,9.70
2022-11-10T00:19:29.520Z,9.70
2022-11-10T00:22:39.675Z,9.60
2022-11-10T00:25:46.695Z,9.50
2022-11-10T00:28:55.172Z,9.70
2022-11-10T00:32:02.173Z,9.70
2022-11-10T00:35:10.185Z,9.60
2022-11-10T00:38:18.986Z,9.60
2022-11-10T00:41:26.264Z,9.60
2022-11-10T00:44:33.469Z,9.60
2022-11-10T00:47:40.467Z,9.60
2022-11-10T00:50:47.516Z,9.60
2022-11-10T00:53:56.743Z,9.70
2022-11-10T00:57:04.182Z,9.70
2022-11-10T01:00:11.922Z,9.70
2022-11-10T01:03:20.362Z,9.60
2022-11-10T01:06:27.898Z,9.70
2022-11-10T01:09:36.184Z,9.70
2022-11-10T01:12:43.541Z,9.70
2022-11-10T01:15:50.729Z,9.70
2022-11-10T01:18:59.369Z,9.70
2022-11-10T01:22:06.426Z,9.70
2022-11-10T01:25:15.047Z,9.70
2022-11-10T01:28:22.283Z,9.80
2022-11-10T01:31:29.313Z,9.80
2022-11-10T01:34:36.647Z,9.90
2022-11-10T01:37:44.501Z,9.80
2022-11-10T01:40:53.785Z,9.80
2022-11-10T01:44:18.892Z,9.90
2022-11-10T01:47:26.644Z,9.80
2022-11-10T01:50:38.796Z,9.80
2022-11-10T01:53:50.684Z,9.90
2022-11-10T01:57:02.058Z,9.90
2022-11-10T02:00:11.120Z,9.90
2022-11-10T02:03:25.305Z,9.90
2022-11-10T02:06:36.228Z,9.80
2022-11-10T02:09:43.206Z,9.90
2022-11-10T02:12:51.924Z,9.90
2022-11-10T02:15:59.266Z,9.90
2022-11-10T02:19:18.407Z,9.90
2022-11-10T02:22:27.060Z,9.80
2022-11-10T02:25:34.197Z,9.90
2022-11-10T02:28:41.393Z,10.00
2022-11-10T02:31:48.555Z,10.00
2022-11-10T02:34:55.708Z,9.90
2022-11-10T02:38:04.265Z,10.00
2022-11-10T02:41:11.095Z,10.00
2022-11-10T02:44:17.936Z,10.00
2022-11-10T02:47:24.898Z,10.00
2022-11-10T02:50:32.111Z,10.10
2022-11-10T02:53:40.426Z,10.00
2022-11-10T02:56:47.493Z,10.10
2022-11-10T02:59:54.835Z,10.10
2022-11-10T03:03:03.357Z,10.10
2022-11-10T03:06:10.516Z,10.10
2022-11-10T03:09:19.037Z,10.10
2022-11-10T03:12:26.529Z,10.10
2022-11-10T03:15:33.923Z,10.20
2022-11-10T03:18:41.189Z,10.30
2022-11-10T03:21:47.948Z,10.40
2022-11-10T03:24:56.379Z,10.30
2022-11-10T03:28:03.385Z,10.30
2022-11-10T03:31:10.153Z,10.20
2022-11-10T03:34:17.032Z,10.30
2022-11-10T03:37:24.020Z,10.40
2022-11-10T03:40:45.545Z,10.40
2022-11-10T03:44:00.005Z,10.40
2022-11-10T03:47:07.109Z,10.50
2022-11-10T03:50:13.902Z,10.40
2022-11-10T03:53:21.239Z,10.30
2022-11-10T03:56:29.893Z,10.30
2022-11-10T03:59:36.873Z,10.30
2022-11-10T04:02:44.281Z,10.30
2022-11-10T04:06:05.441Z,10.30
2022-11-10T04:09:12.568Z,10.40
2022-11-10T04:12:38.620Z,10.50
2022-11-10T04:15:45.581Z,10.60
2022-11-10T04:18:52.836Z,10.60
2022-11-10T04:21:59.794Z,10.50
2022-11-10T04:25:07.993Z,10.50
2022-11-10T04:28:16.359Z,10.50
2022-11-10T04:31:25.014Z,10.50
2022-11-10T04:34:32.065Z,10.50
2022-11-10T04:37:39.107Z,10.50
2022-11-10T04:40:46.135Z,10.50
2022-11-10T04:43:54.749Z,10.50
2022-11-10T04:47:01.825Z,10.60
2022-11-10T04:50:09.228Z,10.50
2022-11-10T04:53:16.573Z,10.60
2022-11-10T04:56:24.995Z,10.60
2022-11-10T04:59:33.532Z,10.60
2022-11-10T05:02:40.703Z,10.60
2022-11-10T05:05:49.235Z,10.60
2022-11-10T05:08:56.076Z,10.70
2022-11-10T05:12:03.236Z,10.70
2022-11-10T05:15:12.819Z,10.70
2022-11-10T05:18:20.275Z,10.80
2022-11-10T05:21:27.593Z,10.80
2022-11-10T05:24:34.900Z,10.90
2022-11-10T05:27:42.307Z,10.80
2022-11-10T05:30:50.939Z,10.70
2022-11-10T05:33:58.298Z,10.70
2022-11-10T05:37:05.479Z,10.80
2022-11-10T05:40:13.024Z,10.80
2022-11-10T05:43:20.564Z,10.70
2022-11-10T05:46:29.142Z,10.70
2022-11-10T05:49:36.075Z,10.80
2022-11-10T05:52:49.996Z,10.80
2022-11-10T05:55:57.614Z,10.80
2022-11-10T05:59:04.831Z,10.70
2022-11-10T06:02:13.277Z,10.80
2022-11-10T06:05:20.191Z,10.80
2022-11-10T06:08:27.252Z,10.80
2022-11-10T06:11:34.028Z,10.70
2022-11-10T06:14:41.344Z,10.80
2022-11-10T06:17:50.415Z,10.80
2022-11-10T06:20:57.536Z,10.80
2022-11-10T06:24:05.017Z,10.80
2022-11-10T06:27:12.172Z,10.90
2022-11-10T06:30:19.098Z,10.90
2022-11-10T06:33:27.557Z,11.00
2022-11-10T06:36:34.689Z,11.00
2022-11-10T06:39:41.376Z,11.00
2022-11-10T06:42:49.038Z,11.00
2022-11-10T06:45:56.125Z,11.00
2022-11-10T06:49:04.841Z,11.10
2022-11-10T06:52:11.573Z,11.00
2022-11-10T06:55:19.049Z,11.00
2022-11-10T06:58:26.365Z,11.00
2022-11-10T07:01:33.264Z,11.10
2022-11-10T07:04:42.911Z,11.10
2022-11-10T07:07:50.080Z,11.10
2022-11-10T07:10:57.711Z,11.10
2022-11-10T07:14:04.607Z,11.10
2022-11-10T07:17:11.482Z,11.10
2022-11-10T07:20:20.212Z,11.10
2022-11-10T07:23:27.063Z,11.20
2022-11-10T07:26:34.339Z,11.20
2022-11-10T07:29:41.425Z,11.20
2022-11-10T07:32:48.674Z,11.20
2022-11-10T07:35:58.893Z,11.20
2022-11-10T07:39:05.969Z,11.20
2022-11-10T07:42:12.805Z,11.30
2022-11-10T07:45:19.702Z,11.20
2022-11-10T07:48:26.647Z,11.30
2022-11-10T07:51:35.144Z,11.30
2022-11-10T07:54:42.147Z,11.30
2022-11-10T07:57:49.446Z,11.40
2022-11-10T08:00:56.537Z,11.50
2022-11-10T08:04:04.035Z,11.50
2022-11-10T08:07:12.421Z,11.50
2022-11-10T08:10:19.743Z,11.50
2022-11-10T08:13:26.723Z,11.50
2022-11-10T08:16:34.364Z,11.50
2022-11-10T08:19:41.368Z,11.50
2022-11-10T08:22:49.657Z,11.50
2022-11-10T08:26:00.152Z,11.60
2022-11-10T08:29:07.275Z,11.60
2022-11-10T08:32:14.534Z,11.60
2022-11-10T08:35:21.655Z,11.60
2022-11-10T08:38:30.080Z,11.70
2022-11-10T08:41:36.881Z,11.60
2022-11-10T08:44:43.952Z,11.70
2022-11-10T08:47:58.113Z,11.70
2022-11-10T08:51:05.506Z,11.70
2022-11-10T08:54:13.922Z,11.70
2022-11-10T08:57:21.067Z,11.80
2022-11-10T09:00:29.645Z,11.90
2022-11-10T09:03:37.235Z,11.90
2022-11-10T09:06:44.198Z,11.90
2022-11-10T09:10:06.881Z,11.80
2022-11-10T09:13:16.558Z,11.80
2022-11-10T09:16:23.628Z,11.90
2022-11-10T09:19:31.196Z,11.90
2022-11-10T09:22:38.693Z,11.80
2022-11-10T09:25:52.002Z,11.90
2022-11-10T09:28:58.917Z,11.90
2022-11-10T09:32:05.935Z,11.90
2022-11-10T09:35:13.484Z,12.00
2022-11-10T09:38:21.268Z,12.00
2022-11-10T09:41:31.189Z,12.00
2022-11-10T09:44:47.075Z,12.10
2022-11-10T09:48:01.850Z,12.10
2022-11-10T09:51:13.746Z,12.00
2022-11-10T09:54:33.431Z,12.20
2022-11-10T09:57:48.693Z,12.20
2022-11-10T10:01:13.007Z,12.10
2022-11-10T10:04:37.591Z,12.20
2022-11-10T10:07:52.582Z,12.10
2022-11-10T10:11:14.489Z,12.20
2022-11-10T10:14:57.965Z,12.20
2022-11-10T10:18:17.735Z,12.20
2022-11-10T10:21:45.749Z,12.20
2022-11-10T10:24:58.136Z,12.30
2022-11-10T10:28:13.726Z,12.40
2022-11-10T10:31:24.530Z,12.40
2022-11-10T10:34:34.739Z,12.50
2022-11-10T10:37:45.417Z,12.50
2022-11-10T10:40:54.157Z,12.60
2022-11-10T10:44:03.077Z,12.70
2022-11-10T10:47:10.141Z,12.80
2022-11-10T10:50:25.020Z,12.70
2022-11-10T10:53:32.476Z,12.80
2022-11-10T10:56:40.035Z,12.90
2022-11-10T10:59:47.164Z,12.70
2022-11-10T11:03:04.674Z,12.80
2022-11-10T11:06:25.595Z,12.80
2022-11-10T11:09:41.714Z,12.90
2022-11-10T11:12:48.822Z,13.00
2022-11-10T11:16:01.740Z,12.90
2022-11-10T11:19:10.167Z,13.00
2022-11-10T11:22:43.805Z,13.00
2022-11-10T15:54:58.738Z,12.10
2022-11-10T15:58:09.749Z,12.10
2022-11-10T16:01:18.518Z,12.00
2022-11-10T16:04:28.376Z,11.90
2022-11-10T16:07:35.699Z,11.90
2022-11-10T16:10:46.481Z,12.00
2022-11-10T16:13:54.868Z,12.00
2022-11-10T16:17:01.999Z,12.00
2022-11-10T16:20:15.204Z,12.10
2022-11-10T16:23:22.880Z,12.20
2022-11-10T16:26:32.201Z,12.20
2022-11-10T16:29:39.812Z,12.20
2022-11-10T16:32:46.924Z,12.20
2022-11-10T16:35:56.413Z,12.10
2022-11-10T16:39:04.632Z,12.10
2022-11-10T16:42:13.525Z,12.20
2022-11-10T16:45:22.496Z,12.20
2022-11-10T16:48:31.911Z,12.20
2022-11-10T16:51:47.187Z,12.10
2022-11-10T16:54:56.050Z,12.10
2022-11-10T16:58:04.752Z,12.10
2022-11-10T17:01:19.367Z,12.10
2022-11-10T17:04:26.731Z,12.10
2022-11-10T17:07:35.257Z,12.00
2022-11-10T17:10:42.130Z,12.10
2022-11-10T17:13:50.624Z,12.10
2022-11-10T17:16:57.655Z,12.10
2022-11-10T17:20:06.695Z,12.00
2022-11-10T17:23:17.413Z,11.90
2022-11-10T17:26:24.921Z,11.80
2022-11-10T17:29:33.397Z,11.80
2022-11-10T17:33:03.476Z,11.80
2022-11-10T17:36:14.023Z,11.70
2022-11-10T17:39:22.671Z,11.70
2022-11-10T17:42:29.450Z,11.70
2022-11-10T17:45:37.944Z,11.70
2022-11-10T17:48:47.674Z,11.60
2022-11-10T17:51:55.240Z,11.60
2022-11-10T17:55:02.395Z,11.60
2022-11-10T17:58:10.593Z,11.60
2022-11-10T18:01:22.603Z,11.60
2022-11-10T18:04:29.924Z,11.50
2022-11-10T18:07:37.337Z,11.50
2022-11-10T18:10:47.766Z,11.50
2022-11-10T18:13:54.826Z,11.40
2022-11-10T18:17:03.342Z,11.40
2022-11-10T18:20:11.860Z,11.40
2022-11-10T18:23:19.315Z,11.40
2022-11-10T18:26:26.602Z,11.50
2022-11-10T18:29:33.780Z,11.50
2022-11-10T18:32:42.502Z,11.50
2022-11-10T18:35:49.958Z,11.40
2022-11-10T18:38:57.403Z,11.30
2022-11-10T18:42:04.873Z,11.30
2022-11-10T18:45:13.049Z,11.30
2022-11-10T18:48:25.570Z,11.20
2022-11-10T18:51:36.079Z,11.20
2022-11-10T18:54:43.014Z,11.20
2022-11-10T18:57:50.308Z,11.30
2022-11-10T19:01:04.425Z,11.20
2022-11-10T19:04:13.898Z,11.30
2022-11-10T19:07:21.117Z,11.30
2022-11-10T19:10:27.988Z,11.20
2022-11-10T19:13:35.525Z,11.30
2022-11-10T19:16:42.625Z,11.20
2022-11-10T19:19:56.147Z,11.10
2022-11-10T19:23:03.520Z,11.10
2022-11-10T19:26:12.253Z,11.10
2022-11-10T19:29:21.417Z,11.10
2022-11-10T19:32:28.350Z,11.10
2022-11-10T19:35:42.118Z,11.00
2022-11-10T19:38:49.077Z,10.90
2022-11-10T19:41:56.754Z,11.00
2022-11-10T19:45:03.945Z,11.10
2022-11-10T19:48:10.900Z,10.90
2022-11-10T19:51:20.254Z,10.90
2022-11-10T19:54:27.379Z,10.90
2022-11-10T19:57:34.470Z,10.90
2022-11-10T20:00:45.974Z,10.90
2022-11-10T20:03:53.098Z,10.90
2022-11-10T20:07:18.911Z,10.80
2022-11-10T20:10:26.535Z,10.90
2022-11-10T20:13:34.533Z,10.80
2022-11-10T20:16:41.389Z,10.80
2022-11-10T20:19:49.177Z,10.80
2022-11-10T20:23:02.434Z,10.70
2022-11-10T20:26:11.900Z,10.80
2022-11-10T20:29:19.089Z,10.70
2022-11-10T20:32:27.156Z,10.80
2022-11-10T20:35:39.983Z,10.90
2022-11-10T20:38:48.805Z,10.80
2022-11-10T20:41:55.948Z,10.70
2022-11-10T20:45:02.965Z,10.70
2022-11-10T20:48:10.069Z,10.80
2022-11-10T20:51:19.295Z,10.60
2022-11-10T20:54:27.825Z,10.50
2022-11-10T20:57:35.104Z,10.40
2022-11-10T21:00:44.061Z,10.40
2022-11-10T21:03:51.511Z,10.60
2022-11-10T21:06:59.089Z,10.50
2022-11-10T21:10:08.552Z,10.50
2022-11-10T21:13:15.886Z,10.50
2022-11-10T21:16:22.971Z,10.40
2022-11-10T21:19:34.161Z,10.40
2022-11-10T21:22:41.371Z,10.40
2022-11-10T21:25:55.237Z,10.40
2022-11-10T21:29:02.972Z,10.40
2022-11-10T21:32:10.306Z,10.50
2022-11-10T21:35:18.186Z,10.50
2022-11-10T21:38:25.971Z,10.30
2022-11-10T21:41:34.893Z,10.30
2022-11-10T21:44:42.040Z,10.30
2022-11-10T21:47:49.099Z,10.30
2022-11-10T21:51:01.063Z,10.40
2022-11-10T21:54:10.498Z,10.30
2022-11-10T21:57:18.881Z,10.30
2022-11-10T22:00:27.811Z,10.30
2022-11-10T22:03:36.147Z,10.30
2022-11-10T22:07:01.001Z,10.30
2022-11-10T22:10:27.642Z,10.20
2022-11-10T22:13:53.437Z,10.20
2022-11-10T22:17:18.542Z,10.20
2022-11-10T22:20:25.823Z,10.20
2022-11-10T22:24:02.401Z,10.20
2022-11-10T22:27:09.795Z,10.10
2022-11-10T22:30:18.199Z,10.20
2022-11-10T22:33:28.162Z,10.20
2022-11-10T22:36:35.404Z,10.20
2022-11-10T22:40:00.074Z,10.20
2022-11-10T22:43:24.943Z,10.10
2022-11-10T22:46:36.520Z,10.10
2022-11-10T22:49:44.157Z,10.10
2022-11-10T22:52:51.136Z,10.10
2022-11-10T22:56:01.260Z,10.10
2022-11-10T22:59:08.488Z,10.00
2022-11-10T23:02:16.725Z,10.00
2022-11-10T23:05:23.640Z,9.90
2022-11-10T23:08:31.558Z,10.00
2022-11-10T23:11:38.477Z,10.00
2022-11-10T23:14:45.602Z,10.00
2022-11-10T23:17:55.600Z,10.10
2022-11-10T23:21:04.724Z,10.00
2022-11-10T23:24:13.611Z,10.00
2022-11-10T23:27:20.464Z,10.00
2022-11-10T23:30:27.429Z,10.00
2022-11-10T23:33:36.228Z,10.00
2022-11-10T23:36:43.415Z,10.00
2022-11-10T23:39:50.631Z,10.00
2022-11-10T23:42:57.691Z,9.90
2022-11-10T23:46:07.476Z,10.00
2022-11-10T23:49:16.720Z,10.00
2022-11-10T23:52:24.214Z,10.00
2022-11-10T23:55:31.202Z,10.00
2022-11-10T23:58:38.549Z,10.00
